createdAt,value
2019-04-22T00:04:32.367Z,100859.11
2019-04-22T00:09:53.011Z,100855.16
2019-04-22T00:14:55.561Z,100855.97
2019-04-22T00:25:17.673Z,100845.30
2019-04-22T00:35:26.842Z,100834.59
2019-04-22T00:40:33.919Z,100831.60
2019-04-22T00:45:44.558Z,100827.08
2019-04-22T00:51:01.695Z,100821.91
2019-04-22T00:56:08.123Z,100816.04
2019-04-22T01:06:20.355Z,100804.42
2019-04-22T01:11:29.530Z,100805.80
2019-04-22T01:16:37.958Z,100799.66
2019-04-22T01:21:40.815Z,100799.19
2019-04-22T01:26:43.380Z,100800.22
2019-04-22T01:31:36.282Z,100796.94
2019-04-22T01:36:57.763Z,100789.72
2019-04-22T01:42:10.465Z,100783.27
2019-04-22T01:47:22.955Z,100785.86
2019-04-22T01:52:20.304Z,100788.84
2019-04-22T01:57:30.090Z,100775.89
2019-04-22T02:02:42.262Z,100774.36
2019-04-22T02:07:49.288Z,100770.61
2019-04-22T02:12:57.763Z,100764.73
2019-04-22T02:18:11.585Z,100760.42
2019-04-22T02:23:45.810Z,100759.95
2019-04-22T02:28:40.065Z,100760.63
2019-04-22T02:44:08.423Z,100751.24
2019-04-22T02:49:25.339Z,100745.78
2019-04-22T02:54:36.473Z,100740.13
2019-04-22T02:59:28.774Z,100729.92
2019-04-22T03:04:24.259Z,100719.36
2019-04-22T03:30:45.435Z,100692.81
2019-04-22T03:40:34.614Z,100679.21
2019-04-22T03:55:45.088Z,100681.78
2019-04-22T04:10:57.873Z,100665.11
2019-04-22T04:16:10.841Z,100675.54
2019-04-22T04:42:07.314Z,100652.60
2019-04-22T04:52:14.543Z,100643.06
2019-04-22T04:57:14.435Z,100648.79
2019-04-22T05:17:47.161Z,100644.91
2019-04-22T05:28:06.940Z,100641.45
2019-04-22T05:32:58.708Z,100634.80
2019-04-22T05:38:13.411Z,100624.50
2019-04-22T05:43:29.486Z,100628.55
2019-04-22T05:48:18.358Z,100627.45
2019-04-22T05:53:25.867Z,100621.06
2019-04-22T05:58:38.428Z,100617.08
2019-04-22T06:03:46.596Z,100610.19
2019-04-22T06:08:48.839Z,100617.30
2019-04-22T06:13:51.976Z,100611.29
2019-04-22T06:19:12.598Z,100600.68
2019-04-22T06:24:20.401Z,100597.30
2019-04-22T06:39:46.719Z,100593.01
2019-04-22T06:44:58.136Z,100587.86
2019-04-22T06:49:52.686Z,100578.98
2019-04-22T06:54:54.802Z,100581.02
2019-04-22T07:00:05.312Z,100569.02
2019-04-22T07:05:07.808Z,100565.48
2019-04-22T07:10:30.476Z,100562.77
2019-04-22T07:15:44.143Z,100562.69
2019-04-22T07:25:56.541Z,100547.93
2019-04-22T07:30:44.782Z,100542.71
2019-04-22T07:36:12.549Z,100542.20
2019-04-22T07:40:59.511Z,100533.20
2019-04-22T07:46:11.335Z,100525.00
2019-04-22T07:56:23.937Z,100501.20
2019-04-22T08:01:30.859Z,100493.02
2019-04-22T08:06:46.375Z,100490.56
2019-04-22T08:11:51.263Z,100488.14
2019-04-22T08:17:05.056Z,100484.13
2019-04-22T08:22:01.482Z,100474.48
2019-04-22T08:27:10.340Z,100466.81
2019-04-22T08:32:14.603Z,100465.61
2019-04-22T08:42:45.163Z,100449.68
2019-04-22T08:52:55.884Z,100435.02
2019-04-22T08:58:16.719Z,100430.14
2019-04-22T09:03:04.398Z,100421.70
2019-04-22T09:08:15.572Z,100414.35
2019-04-22T09:13:14.538Z,100417.38
2019-04-22T09:23:37.235Z,100408.88
2019-04-22T09:28:44.377Z,100395.39
2019-04-22T09:33:43.216Z,100381.72
2019-04-22T09:38:52.803Z,100397.38
2019-04-22T09:49:12.139Z,100361.33
2019-04-22T09:54:21.827Z,100358.67
2019-04-22T09:59:23.778Z,100357.73
2019-04-22T10:04:34.702Z,100356.93
2019-04-22T10:09:49.520Z,100360.33
2019-04-22T10:19:53.006Z,100357.67
2019-04-22T10:25:06.316Z,100332.66
2019-04-22T10:30:08.521Z,100332.81
2019-04-22T10:35:18.315Z,100327.11
2019-04-22T10:40:25.768Z,100316.30
2019-04-22T10:45:32.403Z,100304.14
2019-04-22T10:50:43.371Z,100294.44
2019-04-22T10:55:51.058Z,100285.95
2019-04-22T11:00:58.111Z,100275.48
2019-04-22T11:06:05.514Z,100272.70
2019-04-22T11:11:26.257Z,100256.65
2019-04-22T11:16:19.356Z,100254.61
2019-04-22T11:21:25.435Z,100242.62
2019-04-22T11:26:31.805Z,100248.36
2019-04-22T11:31:38.684Z,100240.59
2019-04-22T11:36:45.043Z,100226.11
2019-04-22T11:41:51.908Z,100217.88
2019-04-22T11:46:57.487Z,100213.41
2019-04-22T11:52:06.506Z,100192.95
2019-04-22T11:57:10.834Z,100192.23
2019-04-22T12:02:19.236Z,100181.05
2019-04-22T12:07:24.596Z,100176.97
2019-04-22T12:12:30.085Z,100172.90
2019-04-22T12:17:36.250Z,100154.12
2019-04-22T12:22:42.938Z,100157.73
2019-04-22T12:27:48.684Z,100147.76
2019-04-22T12:32:54.647Z,100127.23
2019-04-22T12:38:06.113Z,100123.45
2019-04-22T12:43:08.685Z,100111.41
2019-04-22T12:48:15.100Z,100113.10
2019-04-22T12:53:24.915Z,100105.04
2019-04-22T12:58:27.811Z,100104.69
2019-04-22T13:03:34.109Z,100101.42
2019-04-22T13:08:39.624Z,100088.75
2019-04-22T13:13:45.217Z,100072.26
2019-04-22T13:18:57.586Z,100063.82
2019-04-22T13:23:59.108Z,100053.03
2019-04-22T13:29:05.246Z,100040.66
2019-04-22T13:34:21.619Z,100050.06
2019-04-22T13:39:18.784Z,100038.40
2019-04-22T13:44:25.094Z,100018.97
2019-04-22T13:50:18.226Z,100007.52
2019-04-22T13:55:01.729Z,100000.94
2019-04-22T13:59:50.527Z,99997.28
2019-04-22T14:04:52.844Z,99998.16
2019-04-22T14:09:58.423Z,99983.84
2019-04-22T14:15:04.271Z,99964.82
2019-04-22T14:20:10.939Z,99972.82
2019-04-22T14:25:16.678Z,99965.64
2019-04-22T14:30:22.440Z,99969.67
2019-04-22T14:35:29.075Z,99946.04
2019-04-22T14:40:36.221Z,99947.86
2019-04-22T14:51:07.219Z,99931.49
2019-04-22T14:55:56.344Z,99917.52
2019-04-22T15:01:03.220Z,99921.05
2019-04-22T15:06:10.414Z,99914.29
2019-04-22T15:11:17.183Z,99910.88
2019-04-22T15:16:42.594Z,99899.94
2019-04-22T15:21:48.115Z,99888.25
2019-04-22T15:26:54.216Z,99885.68
2019-04-22T15:31:59.981Z,99885.22
2019-04-22T15:37:06.538Z,99883.47
2019-04-22T15:42:19.843Z,99891.11
2019-04-22T15:47:20.651Z,99872.13
2019-04-22T15:52:32.020Z,99872.83
2019-04-22T15:57:38.027Z,99863.77
2019-04-22T16:02:45.710Z,99864.34
2019-04-22T16:07:53.011Z,99864.81
2019-04-22T16:13:14.492Z,99851.50
2019-04-22T16:18:18.226Z,99848.50
2019-04-22T16:23:56.428Z,99852.62
2019-04-22T16:29:03.329Z,99841.55
2019-04-22T16:34:09.451Z,99839.61
2019-04-22T16:39:15.309Z,99832.26
2019-04-22T16:44:20.821Z,99824.02
2019-04-22T16:49:27.627Z,99825.69
2019-04-22T16:54:33.150Z,99821.09
2019-04-22T16:59:38.543Z,99828.46
2019-04-22T17:04:51.824Z,99829.77
2019-04-22T17:09:57.646Z,99824.66
2019-04-22T17:15:08.074Z,99817.97
2019-04-22T17:20:11.298Z,99818.28
2019-04-22T17:25:18.274Z,99816.52
2019-04-22T17:30:24.371Z,99814.78
2019-04-22T17:35:31.591Z,99810.28
2019-04-22T17:40:52.200Z,99819.55
2019-04-22T17:46:24.710Z,99816.50
2019-04-22T17:51:39.644Z,99824.16
2019-04-22T17:56:58.540Z,99815.94
2019-04-22T18:01:48.870Z,99817.91
2019-04-22T18:07:10.222Z,99818.31
2019-04-22T18:12:16.303Z,99817.23
2019-04-22T18:17:17.406Z,99820.33
2019-04-22T18:22:12.550Z,99821.62
2019-04-22T18:27:40.160Z,99834.66
2019-04-22T18:32:30.553Z,99835.27
2019-04-22T18:37:46.875Z,99837.43
2019-04-22T18:42:52.529Z,99841.78
2019-04-22T18:47:48.802Z,99848.22
2019-04-22T18:53:28.653Z,99855.41
2019-04-22T18:58:21.276Z,99857.77
2019-04-22T19:03:21.755Z,99855.07
2019-04-22T19:08:43.028Z,99869.95
2019-04-22T19:14:05.942Z,99866.61
2019-04-22T19:19:20.630Z,99868.66
2019-04-22T19:24:06.759Z,99872.28
2019-04-22T19:29:21.893Z,99881.66
2019-04-22T19:34:20.568Z,99883.45
2019-04-22T19:39:27.298Z,99890.12
2019-04-22T19:44:41.148Z,99886.84
2019-04-22T19:49:52.911Z,99887.98
2019-04-22T19:54:54.945Z,99888.55
2019-04-22T19:59:56.241Z,99892.31
2019-04-22T20:05:33.649Z,99886.50
2019-04-22T20:10:38.016Z,99884.42
2019-04-22T20:15:37.095Z,99887.88
2019-04-22T20:20:54.384Z,99884.27
2019-04-22T20:25:51.401Z,99893.08
2019-04-22T20:31:04.017Z,99893.87
2019-04-22T20:36:36.411Z,99890.89
2019-04-22T20:41:17.010Z,99891.99
2019-04-22T20:46:23.872Z,99887.71
2019-04-22T20:51:43.908Z,99888.88
2019-04-22T20:56:38.643Z,99895.98
2019-04-22T21:01:43.058Z,99894.61
2019-04-22T21:06:54.316Z,99894.41
2019-04-22T21:11:56.684Z,99894.78
2019-04-22T21:17:08.055Z,99891.94
2019-04-22T21:22:22.103Z,99875.08
2019-04-22T21:27:28.271Z,99878.03
2019-04-22T21:32:33.947Z,99885.80
2019-04-22T21:37:43.273Z,99881.78
2019-04-22T21:42:53.095Z,99890.56
2019-04-22T21:48:04.529Z,99894.39
2019-04-22T21:53:09.829Z,99893.34
2019-04-22T21:58:19.524Z,99877.92
2019-04-22T22:03:23.599Z,99892.26
2019-04-22T22:08:42.326Z,99872.51
2019-04-22T22:13:40.320Z,99869.42
2019-04-22T22:18:50.824Z,99858.63
2019-04-22T22:24:01.302Z,99851.32
2019-04-22T22:29:07.761Z,99855.13
2019-04-22T22:34:13.709Z,99849.60
2019-04-22T22:39:08.605Z,99848.27
2019-04-22T22:44:11.559Z,99842.33
2019-04-22T22:49:33.000Z,99837.88
2019-04-22T22:54:39.247Z,99847.11
2019-04-22T22:59:44.199Z,99829.41
2019-04-22T23:04:51.183Z,99828.49
2019-04-22T23:10:01.677Z,99829.11
2019-04-22T23:15:06.261Z,99814.92
2019-04-22T23:19:55.782Z,99816.28
2019-04-22T23:25:27.489Z,99803.52
2019-04-22T23:30:35.865Z,99797.82
2019-04-22T23:35:59.453Z,99791.73
2019-04-22T23:41:40.374Z,99789.69
2019-04-22T23:46:41.171Z,99790.20
2019-04-22T23:52:00.990Z,99782.16
2019-04-22T23:56:52.581Z,99778.95
